createdAt,value
2018-08-18T00:01:48.235Z,4.90
2018-08-18T00:04:30.586Z,4.90
2018-08-18T00:06:59.714Z,4.97
2018-08-18T00:09:27.927Z,4.13
2018-08-18T00:11:56.210Z,5.27
2018-08-18T00:14:24.837Z,4.63
2018-08-18T00:16:53.072Z,4.87
2018-08-18T00:19:23.547Z,5.43
2018-08-18T00:21:51.843Z,5.30
2018-08-18T00:24:20.048Z,4.90
2018-08-18T00:26:48.273Z,5.50
2018-08-18T00:29:16.504Z,4.03
2018-08-18T00:31:45.752Z,5.27
2018-08-18T00:34:14.020Z,5.07
2018-08-18T00:36:42.256Z,5.03
2018-08-18T00:39:11.731Z,5.70
2018-08-18T00:41:40.240Z,5.03
2018-08-18T00:44:09.586Z,4.60
2018-08-18T00:46:37.791Z,5.10
2018-08-18T00:49:06.691Z,4.27
2018-08-18T00:51:35.936Z,4.23
2018-08-18T00:54:05.744Z,4.37
2018-08-18T00:56:38.662Z,4.60
2018-08-18T00:59:07.005Z,5.50
2018-08-18T01:01:35.380Z,4.70
2018-08-18T01:04:06.472Z,5.27
2018-08-18T01:06:38.079Z,3.83
2018-08-18T01:09:08.981Z,4.47
2018-08-18T01:11:37.273Z,4.50
2018-08-18T01:14:13.228Z,4.03
2018-08-18T01:16:46.702Z,4.50
2018-08-18T01:19:14.665Z,4.50
2018-08-18T01:22:13.686Z,4.73
2018-08-18T01:24:41.831Z,4.57
2018-08-18T01:27:10.094Z,4.30
2018-08-18T01:29:38.229Z,4.50
2018-08-18T01:32:06.430Z,4.10
2018-08-18T01:34:34.607Z,3.80
2018-08-18T01:44:12.455Z,4.70
2018-08-18T01:46:42.751Z,3.90
2018-08-18T01:49:37.147Z,5.00
2018-08-18T01:52:17.007Z,5.47
2018-08-18T01:54:45.926Z,4.10
2018-08-18T01:57:15.881Z,4.10
2018-08-18T01:59:45.581Z,4.30
2018-08-18T02:02:15.551Z,4.50
2018-08-18T02:04:44.681Z,4.40
2018-08-18T02:07:21.767Z,4.90
2018-08-18T02:09:50.496Z,4.10
2018-08-18T02:12:22.228Z,4.03
2018-08-18T02:14:50.942Z,4.03
2018-08-18T02:17:24.211Z,3.53
2018-08-18T02:19:53.061Z,4.53
2018-08-18T02:22:22.492Z,4.30
2018-08-18T02:24:56.035Z,4.20
2018-08-18T02:27:30.647Z,4.60
2018-08-18T02:30:17.945Z,4.53
2018-08-18T02:32:46.735Z,5.17
2018-08-18T02:37:58.662Z,3.90
2018-08-18T02:40:26.883Z,4.30
2018-08-18T02:42:55.077Z,5.20
2018-08-18T02:45:23.236Z,3.70
2018-08-18T02:48:07.190Z,4.20
2018-08-18T02:50:35.472Z,4.87
2018-08-18T02:53:13.611Z,4.17
2018-08-18T02:55:41.816Z,3.77
2018-08-18T02:58:10.062Z,4.50
2018-08-18T03:00:38.250Z,5.00
2018-08-18T03:03:06.438Z,4.50
2018-08-18T03:05:34.592Z,3.80
2018-08-18T03:08:02.811Z,3.43
2018-08-18T03:10:30.686Z,3.00
2018-08-18T03:13:00.052Z,4.63
2018-08-18T03:16:02.300Z,4.30
2018-08-18T03:18:36.842Z,4.90
2018-08-18T03:21:05.179Z,3.90
2018-08-18T03:23:34.082Z,3.60
2018-08-18T03:26:02.243Z,4.80
2018-08-18T03:28:36.465Z,4.33
2018-08-18T03:31:05.519Z,3.90
2018-08-18T03:33:33.765Z,3.87
2018-08-18T03:36:07.982Z,3.90
2018-08-18T03:38:36.256Z,3.93
2018-08-18T03:41:04.412Z,3.90
2018-08-18T03:43:32.579Z,4.50
2018-08-18T03:46:00.744Z,4.40
2018-08-18T03:48:28.897Z,4.40
2018-08-18T03:50:57.097Z,4.03
2018-08-18T03:53:25.238Z,3.60
2018-08-18T03:55:53.571Z,4.13
2018-08-18T03:58:21.815Z,4.13
2018-08-18T04:00:50.015Z,4.50
2018-08-18T04:03:18.248Z,4.17
2018-08-18T04:05:46.488Z,3.50
2018-08-18T04:08:14.804Z,4.53
2018-08-18T04:10:43.007Z,5.47
2018-08-18T04:13:11.048Z,4.50
2018-08-18T04:15:39.243Z,4.57
2018-08-18T04:18:13.875Z,4.47
2018-08-18T04:20:41.860Z,4.30
2018-08-18T04:23:09.786Z,4.10
2018-08-18T04:25:37.940Z,3.80
2018-08-18T04:28:06.188Z,3.80
2018-08-18T04:30:34.430Z,4.00
2018-08-18T04:33:04.455Z,4.30
2018-08-18T04:35:33.258Z,4.10
2018-08-18T04:38:02.109Z,4.80
2018-08-18T04:40:30.334Z,4.00
2018-08-18T04:42:59.587Z,4.60
2018-08-18T04:45:27.756Z,3.73
2018-08-18T04:47:55.991Z,4.60
2018-08-18T04:50:24.199Z,4.47
2018-08-18T04:52:53.117Z,4.63
2018-08-18T04:55:21.370Z,4.93
2018-08-18T04:57:49.659Z,5.10
2018-08-18T05:00:17.845Z,5.23
2018-08-18T05:02:51.499Z,4.37
2018-08-18T05:05:21.547Z,4.40
2018-08-18T05:07:50.455Z,4.33
2018-08-18T05:10:20.779Z,5.10
2018-08-18T05:12:48.977Z,4.37
2018-08-18T05:15:18.309Z,4.20
2018-08-18T05:17:47.334Z,4.37
2018-08-18T05:20:18.275Z,4.80
2018-08-18T05:22:46.619Z,4.57
2018-08-18T05:25:15.239Z,3.43
2018-08-18T05:27:43.457Z,4.83
2018-08-18T05:30:11.693Z,4.70
2018-08-18T05:32:39.947Z,3.43
2018-08-18T05:35:09.062Z,4.30
2018-08-18T05:37:37.295Z,4.63
2018-08-18T05:40:06.095Z,5.03
2018-08-18T05:42:34.308Z,4.30
2018-08-18T05:45:18.099Z,5.20
2018-08-18T05:47:46.305Z,4.63
2018-08-18T05:50:14.575Z,4.50
2018-08-18T05:54:12.042Z,5.33
2018-08-18T05:56:41.593Z,4.33
2018-08-18T05:59:09.831Z,4.50
2018-08-18T06:01:39.443Z,4.83
2018-08-18T06:04:15.640Z,3.80
2018-08-18T06:06:44.839Z,3.83
2018-08-18T06:09:14.363Z,4.77
2018-08-18T06:11:42.689Z,4.70
2018-08-18T06:14:11.844Z,5.00
2018-08-18T06:16:40.459Z,4.60
2018-08-18T06:19:08.756Z,5.10
2018-08-18T06:21:37.048Z,5.10
2018-08-18T06:24:05.353Z,6.10
2018-08-18T06:26:33.691Z,7.40
2018-08-18T06:29:01.858Z,7.50
2018-08-18T06:31:30.065Z,9.10
2018-08-18T06:33:58.231Z,8.30
2018-08-18T06:36:26.431Z,8.43
2018-08-18T06:39:00.914Z,8.90
2018-08-18T06:41:29.141Z,8.33
2018-08-18T06:43:57.227Z,8.53
2018-08-18T06:46:25.439Z,8.20
2018-08-18T06:48:53.688Z,8.10
2018-08-18T06:51:21.867Z,8.97
2018-08-18T06:53:50.040Z,9.10
2018-08-18T06:56:17.978Z,8.80
2018-08-18T06:58:46.135Z,9.93
2018-08-18T07:01:14.324Z,10.87
2018-08-18T07:03:46.720Z,10.20
2018-08-18T07:06:16.056Z,11.53
2018-08-18T07:08:49.701Z,9.23
2018-08-18T07:11:17.929Z,11.30
2018-08-18T07:13:46.714Z,10.27
2018-08-18T07:16:14.913Z,9.80
2018-08-18T07:18:43.142Z,10.80
2018-08-18T07:21:11.314Z,10.43
2018-08-18T07:23:39.515Z,9.83
2018-08-18T07:26:07.721Z,10.23
2018-08-18T07:28:35.988Z,10.80
2018-08-18T07:31:04.261Z,10.90
2018-08-18T07:33:32.564Z,10.87
2018-08-18T07:36:01.794Z,9.77
2018-08-18T07:38:29.960Z,9.93
2018-08-18T07:40:58.172Z,9.97
2018-08-18T07:43:28.352Z,9.13
2018-08-18T07:45:59.858Z,8.50
2018-08-18T07:48:28.039Z,9.03
2018-08-18T07:50:56.181Z,7.97
2018-08-18T07:53:24.396Z,7.90
2018-08-18T07:55:52.610Z,8.50
2018-08-18T07:58:21.875Z,8.40
2018-08-18T08:00:50.035Z,8.43
2018-08-18T08:03:18.851Z,8.00
2018-08-18T08:05:47.042Z,9.00
2018-08-18T08:08:16.292Z,7.47
2018-08-18T08:10:44.519Z,8.60
2018-08-18T08:13:13.839Z,7.10
2018-08-18T08:15:42.100Z,7.70
2018-08-18T08:18:12.715Z,6.80
2018-08-18T08:20:40.903Z,8.20
2018-08-18T08:23:09.235Z,8.53
2018-08-18T08:25:37.416Z,7.90
2018-08-18T08:28:05.618Z,8.83
2018-08-18T08:30:33.899Z,8.07
2018-08-18T08:33:02.058Z,7.30
2018-08-18T08:35:30.238Z,7.97
2018-08-18T08:37:58.424Z,10.17
2018-08-18T08:40:26.592Z,9.00
2018-08-18T08:42:54.913Z,10.00
2018-08-18T08:45:24.080Z,7.67
2018-08-18T08:47:52.335Z,8.73
2018-08-18T08:50:22.375Z,7.83
2018-08-18T08:52:55.733Z,6.90
2018-08-18T08:55:25.147Z,7.73
2018-08-18T08:57:53.317Z,7.73
2018-08-18T09:00:21.483Z,8.70
2018-08-18T09:02:49.675Z,7.30
2018-08-18T09:05:18.585Z,7.20
2018-08-18T09:07:46.769Z,7.77
2018-08-18T09:10:15.462Z,7.50
2018-08-18T09:12:43.613Z,7.83
2018-08-18T09:15:12.799Z,7.73
2018-08-18T09:17:40.963Z,7.53
2018-08-18T09:20:12.921Z,7.60
2018-08-18T09:23:02.946Z,7.83
2018-08-18T09:25:32.307Z,7.67
2018-08-18T09:28:02.047Z,7.50
2018-08-18T09:30:31.500Z,8.53
2018-08-18T09:33:01.777Z,8.17
2018-08-18T09:35:31.152Z,7.57
2018-08-18T09:38:00.791Z,8.00
2018-08-18T09:40:30.667Z,7.43
2018-08-18T09:42:58.956Z,6.27
2018-08-18T09:45:27.251Z,6.17
2018-08-18T09:47:55.505Z,6.80
2018-08-18T09:50:23.732Z,6.63
2018-08-18T09:52:51.992Z,6.40
2018-08-18T09:55:20.301Z,6.40
2018-08-18T09:57:48.510Z,7.20
2018-08-18T10:00:16.725Z,6.50
2018-08-18T10:02:44.932Z,6.87
2018-08-18T10:05:13.177Z,6.23
2018-08-18T10:07:41.608Z,6.33
2018-08-18T10:10:11.542Z,7.00
2018-08-18T10:12:39.703Z,5.70
2018-08-18T10:15:07.976Z,5.90
2018-08-18T10:17:36.196Z,5.40
2018-08-18T10:20:05.174Z,6.30
2018-08-18T10:22:33.336Z,5.67
2018-08-18T10:25:01.591Z,5.63
2018-08-18T10:27:29.781Z,5.23
2018-08-18T10:29:57.944Z,5.47
2018-08-18T10:32:26.111Z,4.57
2018-08-18T10:34:54.275Z,4.57
2018-08-18T10:37:22.477Z,4.80
2018-08-18T10:39:51.282Z,4.83
2018-08-18T10:42:25.550Z,5.93
2018-08-18T10:44:59.124Z,5.60
2018-08-18T10:47:27.364Z,5.30
2018-08-18T10:50:07.012Z,5.40
2018-08-18T10:52:46.675Z,5.37
2018-08-18T10:55:16.934Z,4.77
2018-08-18T10:58:01.795Z,5.77
2018-08-18T11:00:31.000Z,6.17
2018-08-18T11:03:00.521Z,5.10
2018-08-18T11:05:29.332Z,5.40
2018-08-18T11:08:03.208Z,3.97
2018-08-18T11:10:32.919Z,4.90
2018-08-18T11:13:01.482Z,4.30
2018-08-18T11:15:29.668Z,3.70
2018-08-18T11:17:58.301Z,4.70
2018-08-18T11:20:27.748Z,4.87
2018-08-18T11:22:58.958Z,5.00
2018-08-18T11:25:29.608Z,3.97
2018-08-18T11:27:58.391Z,4.77
2018-08-18T11:30:26.748Z,4.83
2018-08-18T11:32:56.090Z,4.23
2018-08-18T11:35:24.443Z,5.07
2018-08-18T11:37:56.915Z,4.87
2018-08-18T11:40:26.043Z,4.97
2018-08-18T11:42:56.259Z,5.10
2018-08-18T11:45:27.583Z,4.80
2018-08-18T11:48:02.552Z,4.77
2018-08-18T11:50:30.780Z,5.60
2018-08-18T11:52:59.339Z,4.90
2018-08-18T11:55:27.764Z,4.63
2018-08-18T11:58:07.824Z,5.13
2018-08-18T12:00:57.185Z,5.10
2018-08-18T12:03:28.794Z,5.00
2018-08-18T12:05:58.155Z,5.53
2018-08-18T12:08:27.674Z,4.20
2018-08-18T12:10:57.411Z,4.90
2018-08-18T12:13:31.244Z,4.70
2018-08-18T12:16:08.543Z,4.53
2018-08-18T12:18:38.279Z,4.00
2018-08-18T12:21:06.540Z,4.70
2018-08-18T12:23:35.651Z,6.27
2018-08-18T12:26:05.921Z,5.43
2018-08-18T12:28:39.670Z,5.13
2018-08-18T12:31:09.829Z,5.23
2018-08-18T12:33:38.117Z,4.87
2018-08-18T12:36:06.523Z,4.77
2018-08-18T12:38:35.023Z,4.40
2018-08-18T12:41:04.151Z,4.40
2018-08-18T12:43:38.695Z,4.93
2018-08-18T12:46:08.433Z,4.93
2018-08-18T12:48:38.201Z,5.00
2018-08-18T12:51:07.413Z,5.70
2018-08-18T12:53:41.171Z,5.00
2018-08-18T12:56:11.180Z,5.50
2018-08-18T12:58:39.758Z,5.00
2018-08-18T13:01:07.799Z,5.30
2018-08-18T13:03:36.027Z,3.87
2018-08-18T13:06:04.244Z,5.17
2018-08-18T13:08:32.583Z,4.67
2018-08-18T13:11:00.838Z,6.30
2018-08-18T13:13:29.303Z,5.10
2018-08-18T13:15:57.508Z,4.80
2018-08-18T13:18:25.750Z,5.03
2018-08-18T13:20:55.212Z,4.90
2018-08-18T13:23:24.515Z,5.47
2018-08-18T13:25:53.063Z,5.30
2018-08-18T13:28:22.419Z,4.30
2018-08-18T13:30:50.651Z,5.10
2018-08-18T13:33:18.894Z,4.40
2018-08-18T13:35:48.090Z,4.80
2018-08-18T13:38:27.480Z,4.13
2018-08-18T13:40:56.135Z,4.20
2018-08-18T13:43:39.999Z,4.13
2018-08-18T13:46:10.068Z,4.60
2018-08-18T13:48:38.271Z,4.33
2018-08-18T13:51:07.791Z,4.80
2018-08-18T13:53:43.526Z,4.10
2018-08-18T13:56:11.783Z,4.53
2018-08-18T13:58:40.057Z,4.23
2018-08-18T14:01:23.763Z,3.57
2018-08-18T14:03:52.295Z,4.03
2018-08-18T14:06:20.571Z,4.83
2018-08-18T14:08:53.063Z,4.33
2018-08-18T14:11:21.299Z,4.27
2018-08-18T14:13:49.522Z,3.97
2018-08-18T14:16:17.736Z,4.37
2018-08-18T14:18:45.938Z,4.13
2018-08-18T14:21:14.187Z,4.13
2018-08-18T14:23:42.444Z,4.00
2018-08-18T14:26:10.604Z,3.93
2018-08-18T14:28:38.823Z,4.10
2018-08-18T14:31:07.115Z,3.90
2018-08-18T14:33:35.283Z,3.83
2018-08-18T14:36:10.604Z,3.87
2018-08-18T14:38:38.916Z,4.20
2018-08-18T14:41:07.218Z,4.17
2018-08-18T14:43:40.374Z,4.20
2018-08-18T14:46:13.343Z,4.17
2018-08-18T14:48:41.605Z,4.17
2018-08-18T14:51:09.935Z,3.83
2018-08-18T14:53:41.655Z,3.30
2018-08-18T14:56:09.882Z,3.63
2018-08-18T14:58:38.164Z,3.97
2018-08-18T15:01:11.084Z,4.07
2018-08-18T15:03:39.558Z,4.00
2018-08-18T15:06:07.848Z,3.40
2018-08-18T15:08:36.137Z,3.97
2018-08-18T15:11:04.415Z,4.43
2018-08-18T15:13:32.665Z,3.67
2018-08-18T15:16:00.930Z,3.53
2018-08-18T15:18:29.207Z,4.33
2018-08-18T15:20:57.541Z,3.50
2018-08-18T15:23:25.712Z,3.97
2018-08-18T15:25:53.870Z,5.10
2018-08-18T15:28:22.099Z,4.00
2018-08-18T15:30:52.735Z,4.00
2018-08-18T15:33:22.156Z,4.73
2018-08-18T15:35:50.345Z,3.90
2018-08-18T15:38:18.585Z,3.83
2018-08-18T15:40:46.648Z,4.33
2018-08-18T15:43:14.881Z,4.30
2018-08-18T15:45:57.404Z,3.60
2018-08-18T15:48:25.619Z,3.90
2018-08-18T15:50:53.897Z,4.30
2018-08-18T15:53:53.416Z,4.40
2018-08-18T15:56:22.176Z,4.10
2018-08-18T15:58:50.999Z,3.83
2018-08-18T16:01:21.626Z,3.67
2018-08-18T16:03:49.872Z,4.13
2018-08-18T16:06:18.107Z,5.53
2018-08-18T16:08:46.372Z,4.83
2018-08-18T16:11:14.685Z,4.60
2018-08-18T16:13:42.858Z,4.50
2018-08-18T16:16:11.128Z,4.17
2018-08-18T16:18:39.276Z,3.80
2018-08-18T16:21:14.424Z,4.13
2018-08-18T16:23:43.138Z,4.37
2018-08-18T16:26:11.879Z,4.23
2018-08-18T16:28:40.559Z,4.23
2018-08-18T16:31:09.445Z,4.10
2018-08-18T16:33:37.650Z,4.20
2018-08-18T16:36:05.895Z,5.80
2018-08-18T16:38:34.144Z,5.50
2018-08-18T16:41:02.363Z,4.77
2018-08-18T16:43:33.638Z,4.90
2018-08-18T16:46:20.751Z,5.63
2018-08-18T16:48:49.611Z,6.10
2018-08-18T16:51:17.920Z,5.37
2018-08-18T16:53:46.367Z,7.03
2018-08-18T16:56:21.672Z,10.30
2018-08-18T16:58:50.799Z,6.70
2018-08-18T17:01:19.184Z,6.50
2018-08-18T17:03:47.446Z,14.23
2018-08-18T17:06:15.691Z,13.30
2018-08-18T17:08:43.906Z,7.07
2018-08-18T17:11:12.131Z,4.90
2018-08-18T17:13:40.431Z,7.63
2018-08-18T17:16:08.707Z,9.97
2018-08-18T17:18:37.068Z,4.90
2018-08-18T17:21:06.404Z,5.00
2018-08-18T17:23:35.871Z,5.13
2018-08-18T17:26:04.083Z,4.40
2018-08-18T17:28:32.879Z,4.83
2018-08-18T17:31:01.167Z,7.80
2018-08-18T17:33:29.364Z,9.87
2018-08-18T17:35:57.628Z,8.50
2018-08-18T17:38:25.793Z,6.10
2018-08-18T17:40:54.073Z,4.80
2018-08-18T17:43:22.307Z,4.90
2018-08-18T17:45:59.268Z,4.23
2018-08-18T17:48:28.715Z,4.53
2018-08-18T17:50:57.155Z,4.00
2018-08-18T17:53:25.394Z,4.80
2018-08-18T17:56:02.774Z,5.00
2018-08-18T17:59:55.720Z,5.20
2018-08-18T18:02:23.859Z,6.13
2018-08-18T18:04:56.255Z,6.13
2018-08-18T18:07:24.403Z,5.90
2018-08-18T18:09:52.600Z,5.43
2018-08-18T18:12:21.742Z,7.77
2018-08-18T18:14:49.762Z,5.37
2018-08-18T18:17:18.031Z,6.00
2018-08-18T18:19:46.250Z,5.97
2018-08-18T18:22:14.514Z,6.00
2018-08-18T18:24:43.795Z,5.40
2018-08-18T18:27:12.050Z,6.07
2018-08-18T18:29:40.256Z,5.00
2018-08-18T18:32:08.511Z,5.03
2018-08-18T18:34:36.708Z,6.47
2018-08-18T18:37:04.938Z,5.80
2018-08-18T18:39:38.390Z,5.67
2018-08-18T18:42:06.660Z,6.30
2018-08-18T18:44:34.992Z,7.07
2018-08-18T18:47:03.227Z,6.07
2018-08-18T18:49:31.988Z,6.33
2018-08-18T18:52:00.441Z,6.07
2018-08-18T18:54:28.802Z,6.67
2018-08-18T18:56:57.074Z,6.33
2018-08-18T18:59:25.329Z,6.57
2018-08-18T19:01:53.524Z,6.10
2018-08-18T19:04:21.752Z,6.70
2018-08-18T19:07:02.932Z,6.50
2018-08-18T19:09:31.227Z,6.83
2018-08-18T19:11:59.194Z,7.07
2018-08-18T19:14:27.280Z,7.53
2018-08-18T19:16:55.617Z,6.47
2018-08-18T19:19:23.915Z,6.33
2018-08-18T19:21:52.191Z,6.10
2018-08-18T19:24:22.594Z,6.00
2018-08-18T19:26:56.060Z,7.23
2018-08-18T19:29:25.107Z,7.17
2018-08-18T19:31:55.305Z,7.03
2018-08-18T19:34:23.753Z,6.37
2018-08-18T19:37:00.554Z,6.00
2018-08-18T19:39:29.961Z,6.90
2018-08-18T19:42:06.762Z,7.40
2018-08-18T19:44:41.752Z,8.47
2018-08-18T19:47:09.975Z,8.03
2018-08-18T19:49:44.230Z,8.00
2018-08-18T19:52:14.404Z,8.00
2018-08-18T19:54:44.467Z,8.23
2018-08-18T19:57:12.881Z,7.63
2018-08-18T19:59:41.151Z,7.90
2018-08-18T20:02:09.465Z,8.10
2018-08-18T20:04:37.688Z,7.43
2018-08-18T20:07:05.845Z,7.47
2018-08-18T20:09:33.996Z,7.50
2018-08-18T20:12:02.171Z,7.47
2018-08-18T20:14:30.311Z,7.57
2018-08-18T20:18:01.774Z,7.67
2018-08-18T20:20:29.916Z,7.03
2018-08-18T20:22:58.144Z,7.63
2018-08-18T20:25:26.338Z,7.43
2018-08-18T20:27:54.570Z,7.50
2018-08-18T20:30:22.847Z,7.70
2018-08-18T20:32:51.123Z,7.77
2018-08-18T20:35:19.403Z,7.13
2018-08-18T20:37:47.686Z,7.53
2018-08-18T20:40:16.004Z,9.00
2018-08-18T20:42:44.787Z,8.43
2018-08-18T20:45:13.486Z,8.20
2018-08-18T20:47:43.356Z,7.93
2018-08-18T20:50:12.304Z,8.50
2018-08-18T20:52:40.883Z,7.73
2018-08-18T20:55:09.598Z,7.60
2018-08-18T20:57:37.799Z,7.90
2018-08-18T21:00:07.682Z,8.50
2018-08-18T21:02:35.892Z,8.13
2018-08-18T21:05:05.222Z,7.63
2018-08-18T21:07:34.500Z,8.80
2018-08-18T21:10:11.391Z,8.10
2018-08-18T21:12:44.922Z,8.70
2018-08-18T21:15:13.587Z,9.30
2018-08-18T21:17:41.795Z,7.73
2018-08-18T21:20:11.815Z,7.93
2018-08-18T21:22:40.077Z,8.20
2018-08-18T21:25:09.322Z,7.93
2018-08-18T21:27:37.527Z,8.30
2018-08-18T21:30:08.313Z,9.10
2018-08-18T21:32:36.515Z,8.00
2018-08-18T21:35:05.472Z,8.80
2018-08-18T21:37:33.736Z,8.40
2018-08-18T21:40:01.936Z,7.50
2018-08-18T21:42:30.247Z,9.00
2018-08-18T21:44:58.450Z,7.93
2018-08-18T21:47:26.658Z,7.53
2018-08-18T21:49:54.952Z,7.17
2018-08-18T21:52:23.167Z,8.90
2018-08-18T21:54:51.393Z,8.07
2018-08-18T21:57:19.679Z,7.80
2018-08-18T21:59:56.091Z,7.87
2018-08-18T22:02:39.655Z,7.73
2018-08-18T22:05:11.536Z,7.60
2018-08-18T22:07:45.256Z,8.10
2018-08-18T22:10:13.483Z,8.70
2018-08-18T22:12:41.719Z,9.47
2018-08-18T22:15:15.594Z,8.60
2018-08-18T22:17:43.875Z,8.97
2018-08-18T22:20:12.118Z,9.57
2018-08-18T22:22:40.377Z,8.50
2018-08-18T22:25:08.560Z,9.10
2018-08-18T22:27:37.221Z,9.23
2018-08-18T22:30:10.468Z,9.27
2018-08-18T22:32:38.985Z,8.70
2018-08-18T22:35:07.639Z,8.10
2018-08-18T22:37:35.880Z,9.60
2018-08-18T22:40:04.778Z,8.83
2018-08-18T22:42:33.084Z,8.50
2018-08-18T22:45:12.690Z,10.23
2018-08-18T22:47:41.321Z,9.20
2018-08-18T22:50:09.543Z,9.40
2018-08-18T22:52:37.832Z,8.23
2018-08-18T22:55:06.094Z,8.10
2018-08-18T22:57:35.763Z,9.17
2018-08-18T23:00:04.398Z,9.70
2018-08-18T23:02:32.639Z,9.13
2018-08-18T23:05:00.840Z,8.57
2018-08-18T23:07:29.056Z,8.63
2018-08-18T23:09:57.332Z,9.37
2018-08-18T23:12:25.615Z,10.47
2018-08-18T23:14:53.863Z,9.40
2018-08-18T23:17:22.065Z,8.40
2018-08-18T23:19:50.289Z,8.17
2018-08-18T23:22:29.953Z,9.97
2018-08-18T23:24:58.241Z,9.97
2018-08-18T23:27:27.737Z,10.07
2018-08-18T23:29:56.051Z,9.40
2018-08-18T23:32:24.274Z,9.80
2018-08-18T23:34:53.698Z,11.03
2018-08-18T23:37:22.083Z,9.57
2018-08-18T23:39:54.771Z,10.10
2018-08-18T23:42:24.142Z,9.50
2018-08-18T23:44:52.331Z,10.97
2018-08-18T23:47:20.827Z,10.80
2018-08-18T23:49:49.315Z,11.23
2018-08-18T23:52:17.562Z,9.40
2018-08-18T23:54:45.840Z,9.40
2018-08-18T23:57:15.867Z,8.83
2018-08-18T23:59:44.499Z,9.27
